sensor_id;sensor_type;location;lat;lon;timestamp;P1;durP1;ratioP1;P2;durP2;ratioP2
20880;SDS011;10600;53.096;8.802;2024-01-10T00:00:53;57.35;;;28.25;;
20880;SDS011;10600;53.096;8.802;2024-01-10T00:01:53;53.78;;;28.00;;
20880;SDS011;10600;53.096;8.802;2024-01-10T00:02:54;59.85;;;29.88;;
20880;SDS011;10600;53.096;8.802;2024-01-10T00:03:55;56.03;;;29.48;;
20880;SDS011;10600;53.096;8.802;2024-01-10T00:04:55;54.72;;;29.88;;
20880;SDS011;10600;53.096;8.802;2024-01-10T00:05:56;59.17;;;30.40;;
20880;SDS011;10600;53.096;8.802;2024-01-10T00:06:57;58.20;;;29.33;;
20880;SDS011;10600;53.096;8.802;2024-01-10T00:07:57;57.03;;;28.48;;
20880;SDS011;10600;53.096;8.802;2024-01-10T00:08:58;54.72;;;28.65;;
20880;SDS011;10600;53.096;8.802;2024-01-10T00:09:58;53.15;;;29.45;;
20880;SDS011;10600;53.096;8.802;2024-01-10T00:11:01;57.35;;;29.13;;
20880;SDS011;10600;53.096;8.802;2024-01-10T00:12:01;56.78;;;28.60;;
20880;SDS011;10600;53.096;8.802;2024-01-10T00:13:02;54.17;;;28.85;;
20880;SDS011;10600;53.096;8.802;2024-01-10T00:14:03;56.33;;;29.90;;
20880;SDS011;10600;53.096;8.802;2024-01-10T00:15:05;53.88;;;29.58;;
20880;SDS011;10600;53.096;8.802;2024-01-10T00:16:06;61.80;;;30.55;;
20880;SDS011;10600;53.096;8.802;2024-01-10T00:17:06;51.72;;;29.42;;
20880;SDS011;10600;53.096;8.802;2024-01-10T00:18:07;58.47;;;29.80;;
20880;SDS011;10600;53.096;8.802;2024-01-10T00:19:08;60.30;;;30.48;;
20880;SDS011;10600;53.096;8.802;2024-01-10T00:20:08;55.53;;;29.30;;
20880;SDS011;10600;53.096;8.802;2024-01-10T00:21:12;61.40;;;30.83;;
20880;SDS011;10600;53.096;8.802;2024-01-10T00:22:12;66.90;;;30.83;;
20880;SDS011;10600;53.096;8.802;2024-01-10T00:23:13;58.65;;;29.33;;
20880;SDS011;10600;53.096;8.802;2024-01-10T00:24:13;55.63;;;29.42;;
20880;SDS011;10600;53.096;8.802;2024-01-10T00:25:14;65.40;;;32.10;;
20880;SDS011;10600;53.096;8.802;2024-01-10T00:26:14;60.78;;;31.52;;
20880;SDS011;10600;53.096;8.802;2024-01-10T00:27:16;58.88;;;29.95;;
20880;SDS011;10600;53.096;8.802;2024-01-10T00:28:16;64.30;;;30.77;;
20880;SDS011;10600;53.096;8.802;2024-01-10T00:29:18;65.53;;;31.48;;
20880;SDS011;10600;53.096;8.802;2024-01-10T00:30:18;63.00;;;31.05;;
20880;SDS011;10600;53.096;8.802;2024-01-10T00:31:19;62.70;;;31.17;;
20880;SDS011;10600;53.096;8.802;2024-01-10T00:32:19;65.32;;;32.65;;
20880;SDS011;10600;53.096;8.802;2024-01-10T00:33:20;66.28;;;32.03;;
20880;SDS011;10600;53.096;8.802;2024-01-10T00:34:20;63.78;;;32.63;;
20880;SDS011;10600;53.096;8.802;2024-01-10T00:35:21;67.78;;;32.30;;
20880;SDS011;10600;53.096;8.802;2024-01-10T00:36:21;65.85;;;33.75;;
20880;SDS011;10600;53.096;8.802;2024-01-10T00:37:22;65.68;;;33.00;;
20880;SDS011;10600;53.096;8.802;2024-01-10T00:38:22;66.93;;;33.65;;
20880;SDS011;10600;53.096;8.802;2024-01-10T00:39:23;65.90;;;31.33;;
20880;SDS011;10600;53.096;8.802;2024-01-10T00:40:24;65.63;;;31.92;;
20880;SDS011;10600;53.096;8.802;2024-01-10T00:41:24;67.22;;;33.90;;
20880;SDS011;10600;53.096;8.802;2024-01-10T00:42:25;67.57;;;33.45;;
20880;SDS011;10600;53.096;8.802;2024-01-10T00:43:25;67.60;;;35.92;;
20880;SDS011;10600;53.096;8.802;2024-01-10T00:44:26;62.88;;;33.38;;
20880;SDS011;10600;53.096;8.802;2024-01-10T00:45:26;72.85;;;36.40;;
20880;SDS011;10600;53.096;8.802;2024-01-10T00:46:27;64.45;;;32.72;;
20880;SDS011;10600;53.096;8.802;2024-01-10T00:47:27;69.38;;;33.35;;
20880;SDS011;10600;53.096;8.802;2024-01-10T00:48:28;68.70;;;35.13;;
20880;SDS011;10600;53.096;8.802;2024-01-10T00:49:28;59.90;;;33.25;;
20880;SDS011;10600;53.096;8.802;2024-01-10T00:50:29;66.90;;;33.88;;
20880;SDS011;10600;53.096;8.802;2024-01-10T00:51:29;69.50;;;35.75;;
20880;SDS011;10600;53.096;8.802;2024-01-10T00:52:30;72.55;;;35.80;;
20880;SDS011;10600;53.096;8.802;2024-01-10T00:53:30;69.75;;;35.75;;
20880;SDS011;10600;53.096;8.802;2024-01-10T00:54:31;73.60;;;37.25;;
20880;SDS011;10600;53.096;8.802;2024-01-10T00:55:31;73.15;;;38.67;;
20880;SDS011;10600;53.096;8.802;2024-01-10T00:56:32;76.65;;;37.08;;
20880;SDS011;10600;53.096;8.802;2024-01-10T00:57:32;72.55;;;36.50;;
20880;SDS011;10600;53.096;8.802;2024-01-10T00:58:33;74.53;;;37.42;;
20880;SDS011;10600;53.096;8.802;2024-01-10T00:59:33;78.97;;;37.63;;
20880;SDS011;10600;53.096;8.802;2024-01-10T01:00:34;73.30;;;36.92;;
20880;SDS011;10600;53.096;8.802;2024-01-10T01:01:34;70.82;;;36.55;;
20880;SDS011;10600;53.096;8.802;2024-01-10T01:02:35;68.88;;;37.03;;
20880;SDS011;10600;53.096;8.802;2024-01-10T01:03:36;74.47;;;38.15;;
20880;SDS011;10600;53.096;8.802;2024-01-10T01:04:36;70.97;;;37.83;;
20880;SDS011;10600;53.096;8.802;2024-01-10T01:05:37;74.75;;;37.50;;
20880;SDS011;10600;53.096;8.802;2024-01-10T01:06:37;67.50;;;35.47;;
20880;SDS011;10600;53.096;8.802;2024-01-10T01:07:38;73.72;;;37.20;;
20880;SDS011;10600;53.096;8.802;2024-01-10T01:08:38;72.05;;;38.25;;
20880;SDS011;10600;53.096;8.802;2024-01-10T01:09:39;73.45;;;37.35;;
20880;SDS011;10600;53.096;8.802;2024-01-10T01:10:39;80.03;;;37.40;;
20880;SDS011;10600;53.096;8.802;2024-01-10T01:11:40;72.00;;;37.13;;
20880;SDS011;10600;53.096;8.802;2024-01-10T01:12:41;69.50;;;35.38;;
20880;SDS011;10600;53.096;8.802;2024-01-10T01:13:42;77.03;;;38.55;;
20880;SDS011;10600;53.096;8.802;2024-01-10T01:14:42;67.10;;;35.03;;
20880;SDS011;10600;53.096;8.802;2024-01-10T01:15:43;72.13;;;35.03;;
20880;SDS011;10600;53.096;8.802;2024-01-10T01:16:43;71.03;;;34.00;;
20880;SDS011;10600;53.096;8.802;2024-01-10T01:17:44;73.32;;;36.83;;
20880;SDS011;10600;53.096;8.802;2024-01-10T01:18:44;72.68;;;36.47;;
20880;SDS011;10600;53.096;8.802;2024-01-10T01:19:45;81.05;;;38.75;;
20880;SDS011;10600;53.096;8.802;2024-01-10T01:20:45;80.72;;;38.67;;
20880;SDS011;10600;53.096;8.802;2024-01-10T01:21:48;79.93;;;41.70;;
20880;SDS011;10600;53.096;8.802;2024-01-10T01:22:49;71.63;;;36.85;;
20880;SDS011;10600;53.096;8.802;2024-01-10T01:23:49;73.43;;;38.38;;
20880;SDS011;10600;53.096;8.802;2024-01-10T01:24:50;73.78;;;37.80;;
20880;SDS011;10600;53.096;8.802;2024-01-10T01:25:50;74.75;;;37.03;;
20880;SDS011;10600;53.096;8.802;2024-01-10T01:26:51;76.80;;;37.65;;
20880;SDS011;10600;53.096;8.802;2024-01-10T01:27:52;75.25;;;38.55;;
20880;SDS011;10600;53.096;8.802;2024-01-10T01:28:52;72.05;;;36.25;;
20880;SDS011;10600;53.096;8.802;2024-01-10T01:29:53;74.53;;;37.58;;
20880;SDS011;10600;53.096;8.802;2024-01-10T01:30:54;70.90;;;37.10;;
20880;SDS011;10600;53.096;8.802;2024-01-10T01:31:55;79.90;;;40.35;;
20880;SDS011;10600;53.096;8.802;2024-01-10T01:32:55;76.65;;;37.72;;
20880;SDS011;10600;53.096;8.802;2024-01-10T01:33:56;77.45;;;38.28;;
20880;SDS011;10600;53.096;8.802;2024-01-10T01:34:57;71.95;;;37.42;;
20880;SDS011;10600;53.096;8.802;2024-01-10T01:35:58;85.20;;;37.88;;
20880;SDS011;10600;53.096;8.802;2024-01-10T01:36:58;72.47;;;37.78;;
20880;SDS011;10600;53.096;8.802;2024-01-10T01:38:01;87.22;;;39.88;;
20880;SDS011;10600;53.096;8.802;2024-01-10T01:39:01;84.13;;;40.75;;
20880;SDS011;10600;53.096;8.802;2024-01-10T01:40:02;78.75;;;38.45;;
20880;SDS011;10600;53.096;8.802;2024-01-10T01:41:03;76.68;;;38.72;;
20880;SDS011;10600;53.096;8.802;2024-01-10T01:42:05;73.07;;;38.03;;
20880;SDS011;10600;53.096;8.802;2024-01-10T01:43:25;79.70;;;39.75;;
20880;SDS011;10600;53.096;8.802;2024-01-10T01:44:26;81.55;;;38.80;;
20880;SDS011;10600;53.096;8.802;2024-01-10T01:45:26;79.35;;;39.42;;
20880;SDS011;10600;53.096;8.802;2024-01-10T01:46:27;79.07;;;39.72;;
20880;SDS011;10600;53.096;8.802;2024-01-10T01:47:28;84.75;;;40.88;;
20880;SDS011;10600;53.096;8.802;2024-01-10T01:48:28;81.13;;;38.70;;
20880;SDS011;10600;53.096;8.802;2024-01-10T01:49:29;84.28;;;40.08;;
20880;SDS011;10600;53.096;8.802;2024-01-10T01:50:30;85.28;;;41.88;;
20880;SDS011;10600;53.096;8.802;2024-01-10T01:51:31;73.30;;;39.17;;
20880;SDS011;10600;53.096;8.802;2024-01-10T01:52:32;76.25;;;39.50;;
20880;SDS011;10600;53.096;8.802;2024-01-10T01:53:34;84.22;;;41.00;;
20880;SDS011;10600;53.096;8.802;2024-01-10T01:54:36;82.65;;;40.88;;
20880;SDS011;10600;53.096;8.802;2024-01-10T01:55:36;81.55;;;40.60;;
20880;SDS011;10600;53.096;8.802;2024-01-10T01:56:37;75.95;;;40.47;;
20880;SDS011;10600;53.096;8.802;2024-01-10T01:57:39;83.65;;;39.53;;
20880;SDS011;10600;53.096;8.802;2024-01-10T01:58:40;80.07;;;39.88;;
20880;SDS011;10600;53.096;8.802;2024-01-10T01:59:40;88.50;;;41.72;;
20880;SDS011;10600;53.096;8.802;2024-01-10T02:00:41;79.90;;;40.00;;
20880;SDS011;10600;53.096;8.802;2024-01-10T02:01:43;87.28;;;42.05;;
20880;SDS011;10600;53.096;8.802;2024-01-10T02:02:44;85.72;;;41.17;;
20880;SDS011;10600;53.096;8.802;2024-01-10T02:03:45;86.45;;;42.13;;
20880;SDS011;10600;53.096;8.802;2024-01-10T02:04:46;79.13;;;40.95;;
20880;SDS011;10600;53.096;8.802;2024-01-10T02:05:46;81.13;;;41.70;;
20880;SDS011;10600;53.096;8.802;2024-01-10T02:06:47;79.57;;;38.47;;
20880;SDS011;10600;53.096;8.802;2024-01-10T02:07:48;91.43;;;42.30;;
20880;SDS011;10600;53.096;8.802;2024-01-10T02:08:49;83.80;;;42.05;;
20880;SDS011;10600;53.096;8.802;2024-01-10T02:09:49;86.82;;;42.65;;
20880;SDS011;10600;53.096;8.802;2024-01-10T02:10:50;89.00;;;44.35;;
20880;SDS011;10600;53.096;8.802;2024-01-10T02:11:51;80.00;;;41.88;;
20880;SDS011;10600;53.096;8.802;2024-01-10T02:12:52;80.22;;;40.72;;
20880;SDS011;10600;53.096;8.802;2024-01-10T02:13:53;85.82;;;42.78;;
20880;SDS011;10600;53.096;8.802;2024-01-10T02:14:56;80.50;;;40.05;;
20880;SDS011;10600;53.096;8.802;2024-01-10T02:15:57;87.90;;;43.58;;
20880;SDS011;10600;53.096;8.802;2024-01-10T02:16:58;90.00;;;42.90;;
20880;SDS011;10600;53.096;8.802;2024-01-10T02:17:59;88.65;;;42.55;;
20880;SDS011;10600;53.096;8.802;2024-01-10T02:18:59;83.25;;;40.08;;
20880;SDS011;10600;53.096;8.802;2024-01-10T02:20:07;90.47;;;43.58;;
20880;SDS011;10600;53.096;8.802;2024-01-10T02:21:11;88.38;;;42.28;;
20880;SDS011;10600;53.096;8.802;2024-01-10T02:22:11;90.50;;;44.85;;
20880;SDS011;10600;53.096;8.802;2024-01-10T02:23:12;93.05;;;42.72;;
20880;SDS011;10600;53.096;8.802;2024-01-10T02:24:13;86.80;;;42.58;;
20880;SDS011;10600;53.096;8.802;2024-01-10T02:25:14;82.13;;;40.17;;
20880;SDS011;10600;53.096;8.802;2024-01-10T02:26:14;83.25;;;41.03;;
20880;SDS011;10600;53.096;8.802;2024-01-10T02:27:16;82.22;;;42.10;;
20880;SDS011;10600;53.096;8.802;2024-01-10T02:28:16;83.93;;;41.72;;
20880;SDS011;10600;53.096;8.802;2024-01-10T02:29:17;84.85;;;39.95;;
20880;SDS011;10600;53.096;8.802;2024-01-10T02:30:17;89.57;;;42.38;;
20880;SDS011;10600;53.096;8.802;2024-01-10T02:31:18;80.15;;;41.90;;
20880;SDS011;10600;53.096;8.802;2024-01-10T02:32:18;76.90;;;38.88;;
20880;SDS011;10600;53.096;8.802;2024-01-10T02:33:19;86.53;;;41.63;;
20880;SDS011;10600;53.096;8.802;2024-01-10T02:34:19;90.47;;;42.60;;
20880;SDS011;10600;53.096;8.802;2024-01-10T02:35:20;87.40;;;42.40;;
20880;SDS011;10600;53.096;8.802;2024-01-10T02:36:20;80.50;;;42.13;;
20880;SDS011;10600;53.096;8.802;2024-01-10T02:37:21;82.28;;;40.05;;
20880;SDS011;10600;53.096;8.802;2024-01-10T02:38:21;82.65;;;40.90;;
20880;SDS011;10600;53.096;8.802;2024-01-10T02:39:23;84.22;;;42.42;;
20880;SDS011;10600;53.096;8.802;2024-01-10T02:40:24;84.63;;;41.88;;
20880;SDS011;10600;53.096;8.802;2024-01-10T02:41:24;81.18;;;42.70;;
20880;SDS011;10600;53.096;8.802;2024-01-10T02:42:26;82.88;;;42.45;;
20880;SDS011;10600;53.096;8.802;2024-01-10T02:43:27;87.07;;;44.72;;
20880;SDS011;10600;53.096;8.802;2024-01-10T02:44:28;86.03;;;43.00;;
20880;SDS011;10600;53.096;8.802;2024-01-10T02:45:28;84.18;;;42.78;;
20880;SDS011;10600;53.096;8.802;2024-01-10T02:46:29;86.22;;;41.67;;
20880;SDS011;10600;53.096;8.802;2024-01-10T02:47:29;84.07;;;42.33;;
20880;SDS011;10600;53.096;8.802;2024-01-10T02:48:30;83.85;;;42.25;;
20880;SDS011;10600;53.096;8.802;2024-01-10T02:49:30;88.07;;;43.65;;
20880;SDS011;10600;53.096;8.802;2024-01-10T02:50:31;84.53;;;41.35;;
20880;SDS011;10600;53.096;8.802;2024-01-10T02:51:31;86.85;;;43.25;;
20880;SDS011;10600;53.096;8.802;2024-01-10T02:52:32;83.82;;;43.17;;
20880;SDS011;10600;53.096;8.802;2024-01-10T02:53:32;83.80;;;42.33;;
20880;SDS011;10600;53.096;8.802;2024-01-10T02:54:33;91.97;;;43.40;;
20880;SDS011;10600;53.096;8.802;2024-01-10T02:55:34;89.07;;;43.88;;
20880;SDS011;10600;53.096;8.802;2024-01-10T02:56:34;88.53;;;44.10;;
20880;SDS011;10600;53.096;8.802;2024-01-10T02:57:35;80.35;;;40.83;;
20880;SDS011;10600;53.096;8.802;2024-01-10T02:58:35;86.25;;;41.75;;
20880;SDS011;10600;53.096;8.802;2024-01-10T02:59:36;90.82;;;43.67;;
20880;SDS011;10600;53.096;8.802;2024-01-10T03:00:36;85.28;;;41.53;;
20880;SDS011;10600;53.096;8.802;2024-01-10T03:01:37;83.68;;;41.22;;
20880;SDS011;10600;53.096;8.802;2024-01-10T03:02:38;85.63;;;43.08;;
20880;SDS011;10600;53.096;8.802;2024-01-10T03:03:38;85.13;;;44.28;;
20880;SDS011;10600;53.096;8.802;2024-01-10T03:04:39;85.63;;;43.55;;
20880;SDS011;10600;53.096;8.802;2024-01-10T03:05:40;85.10;;;43.65;;
20880;SDS011;10600;53.096;8.802;2024-01-10T03:06:41;85.15;;;42.75;;
20880;SDS011;10600;53.096;8.802;2024-01-10T03:07:41;83.15;;;41.05;;
20880;SDS011;10600;53.096;8.802;2024-01-10T03:08:42;92.20;;;42.05;;
20880;SDS011;10600;53.096;8.802;2024-01-10T03:09:43;84.75;;;40.70;;
20880;SDS011;10600;53.096;8.802;2024-01-10T03:10:43;87.28;;;41.63;;
20880;SDS011;10600;53.096;8.802;2024-01-10T03:11:44;82.72;;;41.08;;
20880;SDS011;10600;53.096;8.802;2024-01-10T03:12:44;89.45;;;41.38;;
20880;SDS011;10600;53.096;8.802;2024-01-10T03:13:45;84.03;;;42.58;;
20880;SDS011;10600;53.096;8.802;2024-01-10T03:14:47;81.65;;;41.75;;
20880;SDS011;10600;53.096;8.802;2024-01-10T03:15:47;84.30;;;42.05;;
20880;SDS011;10600;53.096;8.802;2024-01-10T03:16:48;86.68;;;43.55;;
20880;SDS011;10600;53.096;8.802;2024-01-10T03:17:49;81.93;;;42.28;;
20880;SDS011;10600;53.096;8.802;2024-01-10T03:18:49;92.07;;;44.08;;
20880;SDS011;10600;53.096;8.802;2024-01-10T03:19:50;89.15;;;43.15;;
20880;SDS011;10600;53.096;8.802;2024-01-10T03:20:50;82.32;;;41.55;;
20880;SDS011;10600;53.096;8.802;2024-01-10T03:21:51;97.03;;;43.58;;
20880;SDS011;10600;53.096;8.802;2024-01-10T03:22:52;83.90;;;43.47;;
20880;SDS011;10600;53.096;8.802;2024-01-10T03:23:56;87.75;;;43.22;;
20880;SDS011;10600;53.096;8.802;2024-01-10T03:24:57;86.15;;;43.72;;
20880;SDS011;10600;53.096;8.802;2024-01-10T03:25:58;86.68;;;41.63;;
20880;SDS011;10600;53.096;8.802;2024-01-10T03:26:58;90.68;;;44.35;;
20880;SDS011;10600;53.096;8.802;2024-01-10T03:27:59;88.82;;;43.63;;
20880;SDS011;10600;53.096;8.802;2024-01-10T03:28:59;87.18;;;41.60;;
20880;SDS011;10600;53.096;8.802;2024-01-10T03:30:00;80.60;;;41.70;;
20880;SDS011;10600;53.096;8.802;2024-01-10T03:31:00;91.07;;;44.50;;
20880;SDS011;10600;53.096;8.802;2024-01-10T03:32:01;97.43;;;46.35;;
20880;SDS011;10600;53.096;8.802;2024-01-10T03:33:02;95.53;;;41.97;;
20880;SDS011;10600;53.096;8.802;2024-01-10T03:34:03;83.90;;;42.95;;
20880;SDS011;10600;53.096;8.802;2024-01-10T03:35:04;91.57;;;44.70;;
20880;SDS011;10600;53.096;8.802;2024-01-10T03:36:08;85.47;;;43.67;;
20880;SDS011;10600;53.096;8.802;2024-01-10T03:37:11;89.38;;;44.72;;
20880;SDS011;10600;53.096;8.802;2024-01-10T03:38:11;97.65;;;45.83;;
20880;SDS011;10600;53.096;8.802;2024-01-10T03:39:12;94.97;;;43.78;;
20880;SDS011;10600;53.096;8.802;2024-01-10T03:40:12;95.60;;;46.83;;
20880;SDS011;10600;53.096;8.802;2024-01-10T03:41:13;90.38;;;42.85;;
20880;SDS011;10600;53.096;8.802;2024-01-10T03:42:15;90.32;;;45.58;;
20880;SDS011;10600;53.096;8.802;2024-01-10T03:43:15;92.15;;;44.60;;
20880;SDS011;10600;53.096;8.802;2024-01-10T03:44:16;92.40;;;44.30;;
20880;SDS011;10600;53.096;8.802;2024-01-10T03:45:17;95.97;;;45.30;;
20880;SDS011;10600;53.096;8.802;2024-01-10T03:46:20;92.57;;;45.58;;
20880;SDS011;10600;53.096;8.802;2024-01-10T03:47:21;88.97;;;44.05;;
20880;SDS011;10600;53.096;8.802;2024-01-10T03:48:21;87.90;;;43.92;;
20880;SDS011;10600;53.096;8.802;2024-01-10T03:49:22;93.68;;;47.50;;
20880;SDS011;10600;53.096;8.802;2024-01-10T03:50:22;94.47;;;46.45;;
20880;SDS011;10600;53.096;8.802;2024-01-10T03:51:23;97.15;;;48.05;;
20880;SDS011;10600;53.096;8.802;2024-01-10T03:52:24;97.50;;;46.42;;
20880;SDS011;10600;53.096;8.802;2024-01-10T03:53:25;95.07;;;46.75;;
20880;SDS011;10600;53.096;8.802;2024-01-10T03:54:25;96.95;;;47.22;;
20880;SDS011;10600;53.096;8.802;2024-01-10T03:55:26;99.53;;;47.95;;
20880;SDS011;10600;53.096;8.802;2024-01-10T03:56:26;93.38;;;46.80;;
20880;SDS011;10600;53.096;8.802;2024-01-10T03:57:27;91.82;;;45.22;;
20880;SDS011;10600;53.096;8.802;2024-01-10T03:58:27;89.97;;;45.42;;
20880;SDS011;10600;53.096;8.802;2024-01-10T03:59:28;91.63;;;45.28;;
20880;SDS011;10600;53.096;8.802;2024-01-10T04:00:28;103.65;;;47.63;;
20880;SDS011;10600;53.096;8.802;2024-01-10T04:01:29;96.85;;;47.38;;
20880;SDS011;10600;53.096;8.802;2024-01-10T04:02:29;96.95;;;47.38;;
20880;SDS011;10600;53.096;8.802;2024-01-10T04:03:30;99.32;;;47.13;;
20880;SDS011;10600;53.096;8.802;2024-01-10T04:04:30;93.90;;;46.58;;
20880;SDS011;10600;53.096;8.802;2024-01-10T04:05:31;100.22;;;47.63;;
20880;SDS011;10600;53.096;8.802;2024-01-10T04:06:31;95.93;;;46.75;;
20880;SDS011;10600;53.096;8.802;2024-01-10T04:07:32;99.70;;;47.60;;
20880;SDS011;10600;53.096;8.802;2024-01-10T04:08:33;97.50;;;46.53;;
20880;SDS011;10600;53.096;8.802;2024-01-10T04:09:33;98.15;;;47.25;;
20880;SDS011;10600;53.096;8.802;2024-01-10T04:10:34;99.18;;;48.97;;
20880;SDS011;10600;53.096;8.802;2024-01-10T04:11:34;93.70;;;47.22;;
20880;SDS011;10600;53.096;8.802;2024-01-10T04:12:38;98.85;;;47.30;;
20880;SDS011;10600;53.096;8.802;2024-01-10T04:13:39;97.50;;;46.88;;
20880;SDS011;10600;53.096;8.802;2024-01-10T04:14:39;100.50;;;48.78;;
20880;SDS011;10600;53.096;8.802;2024-01-10T04:15:40;93.25;;;45.70;;
20880;SDS011;10600;53.096;8.802;2024-01-10T04:16:40;94.43;;;46.80;;
20880;SDS011;10600;53.096;8.802;2024-01-10T04:17:41;100.13;;;47.72;;
20880;SDS011;10600;53.096;8.802;2024-01-10T04:18:41;88.55;;;45.75;;
20880;SDS011;10600;53.096;8.802;2024-01-10T04:19:42;107.65;;;49.80;;
20880;SDS011;10600;53.096;8.802;2024-01-10T04:20:42;103.72;;;49.33;;
20880;SDS011;10600;53.096;8.802;2024-01-10T04:21:44;108.65;;;50.60;;
20880;SDS011;10600;53.096;8.802;2024-01-10T04:22:44;100.75;;;49.95;;
20880;SDS011;10600;53.096;8.802;2024-01-10T04:23:45;109.57;;;49.13;;
20880;SDS011;10600;53.096;8.802;2024-01-10T04:24:45;104.72;;;48.58;;
20880;SDS011;10600;53.096;8.802;2024-01-10T04:25:46;100.07;;;49.90;;
20880;SDS011;10600;53.096;8.802;2024-01-10T04:26:46;105.80;;;47.28;;
20880;SDS011;10600;53.096;8.802;2024-01-10T04:27:47;99.30;;;46.58;;
20880;SDS011;10600;53.096;8.802;2024-01-10T04:28:50;99.20;;;46.95;;
20880;SDS011;10600;53.096;8.802;2024-01-10T04:29:50;102.43;;;49.45;;
20880;SDS011;10600;53.096;8.802;2024-01-10T04:30:51;98.70;;;48.85;;
20880;SDS011;10600;53.096;8.802;2024-01-10T04:31:51;91.95;;;46.65;;
20880;SDS011;10600;53.096;8.802;2024-01-10T04:32:52;101.25;;;46.25;;
20880;SDS011;10600;53.096;8.802;2024-01-10T04:33:52;94.50;;;45.45;;
20880;SDS011;10600;53.096;8.802;2024-01-10T04:34:53;96.93;;;47.58;;
20880;SDS011;10600;53.096;8.802;2024-01-10T04:35:53;99.78;;;49.65;;
20880;SDS011;10600;53.096;8.802;2024-01-10T04:36:54;97.13;;;48.75;;
20880;SDS011;10600;53.096;8.802;2024-01-10T04:37:55;98.97;;;44.47;;
20880;SDS011;10600;53.096;8.802;2024-01-10T04:38:55;88.63;;;45.40;;
20880;SDS011;10600;53.096;8.802;2024-01-10T04:39:56;99.97;;;47.90;;
20880;SDS011;10600;53.096;8.802;2024-01-10T04:40:56;96.47;;;46.13;;
20880;SDS011;10600;53.096;8.802;2024-01-10T04:41:57;101.65;;;47.33;;
20880;SDS011;10600;53.096;8.802;2024-01-10T04:42:57;93.97;;;46.65;;
20880;SDS011;10600;53.096;8.802;2024-01-10T04:43:58;96.63;;;49.10;;
20880;SDS011;10600;53.096;8.802;2024-01-10T04:44:58;106.35;;;49.00;;
20880;SDS011;10600;53.096;8.802;2024-01-10T04:45:59;94.18;;;47.38;;
20880;SDS011;10600;53.096;8.802;2024-01-10T04:46:59;92.40;;;46.85;;
20880;SDS011;10600;53.096;8.802;2024-01-10T04:48:00;98.97;;;47.45;;
20880;SDS011;10600;53.096;8.802;2024-01-10T04:49:00;99.50;;;47.80;;
20880;SDS011;10600;53.096;8.802;2024-01-10T04:50:01;93.80;;;47.15;;
20880;SDS011;10600;53.096;8.802;2024-01-10T04:51:02;96.72;;;46.30;;
20880;SDS011;10600;53.096;8.802;2024-01-10T04:52:02;95.90;;;45.63;;
20880;SDS011;10600;53.096;8.802;2024-01-10T04:53:03;102.65;;;47.78;;
20880;SDS011;10600;53.096;8.802;2024-01-10T04:54:04;91.40;;;46.72;;
20880;SDS011;10600;53.096;8.802;2024-01-10T04:55:04;98.18;;;47.88;;
20880;SDS011;10600;53.096;8.802;2024-01-10T04:56:06;94.50;;;46.55;;
20880;SDS011;10600;53.096;8.802;2024-01-10T04:57:06;98.45;;;46.83;;
20880;SDS011;10600;53.096;8.802;2024-01-10T04:58:10;97.47;;;48.05;;
20880;SDS011;10600;53.096;8.802;2024-01-10T04:59:10;98.88;;;47.50;;
20880;SDS011;10600;53.096;8.802;2024-01-10T05:00:11;95.00;;;46.50;;
20880;SDS011;10600;53.096;8.802;2024-01-10T05:01:12;102.25;;;48.88;;
20880;SDS011;10600;53.096;8.802;2024-01-10T05:02:12;95.90;;;48.20;;
20880;SDS011;10600;53.096;8.802;2024-01-10T05:03:13;98.88;;;48.90;;
20880;SDS011;10600;53.096;8.802;2024-01-10T05:04:14;105.80;;;49.58;;
20880;SDS011;10600;53.096;8.802;2024-01-10T05:05:15;105.35;;;48.80;;
20880;SDS011;10600;53.096;8.802;2024-01-10T05:06:16;104.85;;;46.85;;
20880;SDS011;10600;53.096;8.802;2024-01-10T05:07:16;101.10;;;48.60;;
20880;SDS011;10600;53.096;8.802;2024-01-10T05:08:17;91.85;;;44.28;;
20880;SDS011;10600;53.096;8.802;2024-01-10T05:09:20;94.05;;;46.80;;
20880;SDS011;10600;53.096;8.802;2024-01-10T05:10:20;97.18;;;47.53;;
20880;SDS011;10600;53.096;8.802;2024-01-10T05:11:21;95.65;;;46.97;;
20880;SDS011;10600;53.096;8.802;2024-01-10T05:12:21;94.32;;;44.92;;
20880;SDS011;10600;53.096;8.802;2024-01-10T05:13:22;97.97;;;47.00;;
20880;SDS011;10600;53.096;8.802;2024-01-10T05:14:22;103.82;;;47.78;;
20880;SDS011;10600;53.096;8.802;2024-01-10T05:15:23;94.35;;;46.00;;
20880;SDS011;10600;53.096;8.802;2024-01-10T05:16:24;86.93;;;44.95;;
20880;SDS011;10600;53.096;8.802;2024-01-10T05:17:24;95.05;;;45.35;;
20880;SDS011;10600;53.096;8.802;2024-01-10T05:18:25;94.55;;;46.90;;
20880;SDS011;10600;53.096;8.802;2024-01-10T05:19:25;101.55;;;45.78;;
20880;SDS011;10600;53.096;8.802;2024-01-10T05:20:26;95.90;;;46.47;;
20880;SDS011;10600;53.096;8.802;2024-01-10T05:21:26;89.30;;;46.58;;
20880;SDS011;10600;53.096;8.802;2024-01-10T05:22:27;104.70;;;46.38;;
20880;SDS011;10600;53.096;8.802;2024-01-10T05:23:28;99.22;;;46.33;;
20880;SDS011;10600;53.096;8.802;2024-01-10T05:24:28;98.45;;;47.58;;
20880;SDS011;10600;53.096;8.802;2024-01-10T05:25:29;97.22;;;48.13;;
20880;SDS011;10600;53.096;8.802;2024-01-10T05:26:29;97.63;;;46.33;;
20880;SDS011;10600;53.096;8.802;2024-01-10T05:27:30;91.63;;;45.65;;
20880;SDS011;10600;53.096;8.802;2024-01-10T05:28:30;99.32;;;45.95;;
20880;SDS011;10600;53.096;8.802;2024-01-10T05:29:31;92.35;;;45.70;;
20880;SDS011;10600;53.096;8.802;2024-01-10T05:30:31;97.55;;;47.65;;
20880;SDS011;10600;53.096;8.802;2024-01-10T05:31:32;109.47;;;47.72;;
20880;SDS011;10600;53.096;8.802;2024-01-10T05:32:32;103.75;;;47.65;;
20880;SDS011;10600;53.096;8.802;2024-01-10T05:33:33;98.30;;;47.55;;
20880;SDS011;10600;53.096;8.802;2024-01-10T05:34:33;96.88;;;45.95;;
20880;SDS011;10600;53.096;8.802;2024-01-10T05:35:34;101.22;;;45.90;;
20880;SDS011;10600;53.096;8.802;2024-01-10T05:36:35;98.18;;;47.20;;
20880;SDS011;10600;53.096;8.802;2024-01-10T05:37:36;92.05;;;44.90;;
20880;SDS011;10600;53.096;8.802;2024-01-10T05:38:37;96.78;;;45.83;;
20880;SDS011;10600;53.096;8.802;2024-01-10T05:39:38;95.88;;;47.20;;
20880;SDS011;10600;53.096;8.802;2024-01-10T05:40:38;96.03;;;46.15;;
20880;SDS011;10600;53.096;8.802;2024-01-10T05:41:39;100.20;;;45.15;;
20880;SDS011;10600;53.096;8.802;2024-01-10T05:42:39;109.93;;;46.50;;
20880;SDS011;10600;53.096;8.802;2024-01-10T05:43:40;94.68;;;44.88;;
20880;SDS011;10600;53.096;8.802;2024-01-10T05:44:41;103.45;;;46.15;;
20880;SDS011;10600;53.096;8.802;2024-01-10T05:45:42;88.00;;;42.33;;
20880;SDS011;10600;53.096;8.802;2024-01-10T05:46:42;91.97;;;43.63;;
20880;SDS011;10600;53.096;8.802;2024-01-10T05:47:43;90.90;;;41.92;;
20880;SDS011;10600;53.096;8.802;2024-01-10T05:48:43;94.68;;;43.65;;
20880;SDS011;10600;53.096;8.802;2024-01-10T05:49:44;88.53;;;43.60;;
20880;SDS011;10600;53.096;8.802;2024-01-10T05:50:45;91.32;;;43.90;;
20880;SDS011;10600;53.096;8.802;2024-01-10T05:51:45;92.18;;;43.63;;
20880;SDS011;10600;53.096;8.802;2024-01-10T05:52:46;99.43;;;43.33;;
20880;SDS011;10600;53.096;8.802;2024-01-10T05:53:47;90.75;;;42.97;;
20880;SDS011;10600;53.096;8.802;2024-01-10T05:54:48;93.10;;;42.13;;
20880;SDS011;10600;53.096;8.802;2024-01-10T05:55:48;93.82;;;39.17;;